Wednesday, November 22, 2017, 7:56 AM EST
Back to Local

KVAY, Mt Holly South Jersey Rgnl

Location: Medford, NJ, United States Lat: 39.933
Local Time: 7:56 AM EST (12:56 GMT) Lon: -74.833
Time Zone: US/Eastern Elev: 52 ft

Show me the last for .
Show Decoded

2017-11-22 07:17 METAR KVAY 221217Z AUTO 23003KT 5SM RA BR SCT013 BKN060 OVC075 11/11 A2991 RMK
                 AO2 P0005 T01110111 $ =
2017-11-22 07:09 METAR KVAY 221209Z AUTO 22005KT 4SM RA BR SCT013 BKN018 OVC055 11/11 A2991 RMK
                 AO2 P0004 T01110111 $ =
2017-11-22 06:57 METAR KVAY 221157Z AUTO 00000KT 3SM RA BR BKN013 OVC021 10/10 A2992 RMK AO2
                 P0001 T01000100 $ =
2017-11-22 06:54 METAR KVAY 221154Z AUTO 00000KT 2 1/2SM RA BR BKN013 OVC021 10/10 A2992 RMK AO2
                 RAE05B43 SLP130 P0004 60010 70010 T01000100 10106 20094 55007 $ =
2017-11-22 06:24 METAR KVAY 221124Z AUTO 00000KT 10SM BKN024 OVC029 10/10 A2991 RMK AO2 RAE05
                 P0000 T01000100 $ =
2017-11-22 05:54 METAR KVAY 221054Z AUTO 00000KT 7SM -RA FEW046 FEW065 OVC085 09/09 A2990 RMK AO2
                 RAB54 SLP126 P0000 T00940094 $ =
2017-11-22 05:47 METAR KVAY 221047Z AUTO 00000KT 3SM BR BKN085 09/09 A2990 RMK AO2 T00940094 $ =
2017-11-22 05:39 METAR KVAY 221039Z AUTO 00000KT 1 1/2SM BR FEW034 BKN085 09/09 A2991 RMK AO2 VIS
                 1V3 T00940094 $ =
2017-11-22 05:31 METAR KVAY 221031Z AUTO 00000KT 2SM BR FEW034 SCT085 09/09 A2990 RMK AO2 VIS 1V3
                 T00940094 $ =
2017-11-22 04:54 METAR KVAY 220954Z AUTO 00000KT 6SM BR SCT040 BKN120 10/10 A2990 RMK AO2 SLP125
                 T01000100 $ =
2017-11-22 03:54 METAR KVAY 220854Z AUTO 00000KT 10SM FEW043 BKN120 10/10 A2994 RMK AO2 RAE31
                 SLP137 P0003 60006 T01000100 58021 $ =
2017-11-22 02:54 METAR KVAY 220754Z AUTO 18003KT 4SM -RA BR FEW034 BKN045 OVC120 09/08 A2997 RMK
                 AO2 RAB53 SLP149 P0003 T00940083 $ =
2017-11-22 01:54 METAR KVAY 220654Z AUTO 00000KT 10SM FEW110 11/08 A2997 RMK AO2 SLP149 T01060083
                 $ =
2017-11-22 00:54 METAR KVAY 220554Z AUTO 00000KT 10SM SCT047 BKN060 11/07 A3000 RMK AO2 SLP158
                 T01060072 10122 20089 58016 $ =
2017-11-21 23:54 METAR KVAY 220454Z AUTO 00000KT 10SM CLR 11/07 A3002 RMK AO2 SLP167 T01060072
                 401500000 $ =
2017-11-21 22:54 METAR KVAY 220354Z AUTO VRB03KT 10SM OVC050 12/07 A3003 RMK AO2 SLP170 T01220067
                 $ =
2017-11-21 21:54 METAR KVAY 220254Z AUTO 21005KT 10SM CLR 12/06 A3004 RMK AO2 SLP173 T01220061
                 56002 $ =
2017-11-21 20:54 METAR KVAY 220154Z AUTO VRB04KT 10SM CLR 10/05 A3005 RMK AO2 SLP174 T01000050 $
                 =
2017-11-21 19:54 METAR KVAY 220054Z AUTO 18004KT 10SM CLR 09/04 A3005 RMK AO2 SLP174 T00940044 $
                 =
2017-11-21 18:54 METAR KVAY 212354Z AUTO VRB03KT 10SM CLR 11/04 A3005 RMK AO2 SLP175 T01060044
                 10150 20106 53006 $ =
2017-11-21 17:54 METAR KVAY 212254Z AUTO 20003KT 10SM CLR 11/03 A3004 RMK AO2 SLP172 T01110033 $
                 =
2017-11-21 16:54 METAR KVAY 212154Z AUTO 21005KT 10SM CLR 12/02 A3004 RMK AO2 SLP170 T01220022 $
                 =
2017-11-21 15:54 METAR KVAY 212054Z AUTO 21007KT 160V240 10SM CLR 14/02 A3003 RMK AO2 SLP169
                 T01390017 55016 $ =
2017-11-21 14:54 METAR KVAY 211954Z AUTO 20008G14KT 160V230 10SM CLR 15/00 A3003 RMK AO2 SLP169
                 T01500000 $ =
2017-11-21 13:54 METAR KVAY 211854Z AUTO 18007KT 10SM CLR 14/M01 A3003 RMK AO2 PRESFR SLP169
                 T01391006 $ =
2017-11-21 12:54 METAR KVAY 211754Z AUTO 21008G18KT 10SM CLR 13/M02 A3008 RMK AO2 SLP185
                 T01331017 10144 20017 58019 $ =
2017-11-21 11:54 METAR KVAY 211654Z AUTO 23010G21KT 10SM CLR 14/M01 A3011 RMK AO2 SLP194
                 T01391011 $ =
2017-11-21 10:54 METAR KVAY 211554Z AUTO 22012G20KT 10SM CLR 13/M01 A3012 RMK AO2 SLP199
                 T01281006 $ =
2017-11-21 09:54 METAR KVAY 211454Z AUTO 21010G19KT 180V240 10SM CLR 11/00 A3013 RMK AO2 SLP204
                 T01110000 58004 $ =
2017-11-21 08:54 METAR KVAY 211354Z AUTO VRB04KT 10SM CLR 08/02 A3014 RMK AO2 SLP208 T00780017 $
                 =

Support USWX by starting your Amazon purchase here.